createdAt,value
2022-11-04T00:00:08.000Z,283.4
2022-11-04T00:01:35.000Z,283.4
2022-11-04T00:03:41.000Z,283.4
2022-11-04T00:06:32.000Z,283.4
2022-11-04T00:07:59.000Z,283.46
2022-11-04T00:10:05.000Z,283.46
2022-11-04T00:11:31.000Z,283.52
2022-11-04T00:13:37.000Z,283.46
2022-11-04T00:15:04.000Z,283.46
2022-11-04T00:17:10.000Z,283.46
2022-11-04T00:18:36.000Z,283.46
2022-11-04T00:20:42.000Z,283.4
2022-11-04T00:22:09.000Z,283.46
2022-11-04T00:24:15.000Z,283.52
2022-11-04T00:25:41.000Z,283.52
2022-11-04T00:27:47.000Z,283.46
2022-11-04T00:29:14.000Z,283.4
2022-11-04T00:31:20.000Z,283.4
2022-11-04T00:32:47.000Z,283.34
2022-11-04T00:34:53.000Z,283.34
2022-11-04T00:36:19.000Z,283.27
2022-11-04T00:38:26.000Z,283.34
2022-11-04T00:39:52.000Z,283.34
2022-11-04T00:41:58.000Z,283.34
2022-11-04T00:44:49.000Z,283.34
2022-11-04T00:46:16.000Z,283.4
2022-11-04T00:48:22.000Z,283.4
2022-11-04T00:49:48.000Z,283.4
2022-11-04T00:51:55.000Z,283.4
2022-11-04T00:53:21.000Z,283.34
2022-11-04T00:55:27.000Z,283.34
2022-11-04T00:56:54.000Z,283.4
2022-11-04T00:59:00.000Z,283.4
2022-11-04T01:00:26.000Z,283.34
2022-11-04T01:02:32.000Z,283.34
2022-11-04T01:03:59.000Z,283.34
2022-11-04T01:06:05.000Z,283.4
2022-11-04T01:07:32.000Z,283.4
2022-11-04T01:09:43.000Z,283.4
2022-11-04T01:11:10.000Z,283.4
2022-11-04T01:13:16.000Z,283.46
2022-11-04T01:14:42.000Z,283.4
2022-11-04T01:16:48.000Z,283.34
2022-11-04T01:18:15.000Z,283.4
2022-11-04T01:20:21.000Z,283.34
2022-11-04T01:23:12.000Z,283.27
2022-11-04T01:24:39.000Z,283.27
2022-11-04T01:26:45.000Z,283.34
2022-11-04T01:28:11.000Z,283.34
2022-11-04T01:30:17.000Z,283.27
2022-11-04T01:31:44.000Z,283.27
2022-11-04T01:33:50.000Z,283.21
2022-11-04T01:35:16.000Z,283.21
2022-11-04T01:37:23.000Z,283.21
2022-11-04T01:38:49.000Z,283.27
2022-11-04T01:40:55.000Z,283.27
2022-11-04T01:42:22.000Z,283.27
2022-11-04T01:44:28.000Z,283.21
2022-11-04T01:45:54.000Z,283.21
2022-11-04T01:48:00.000Z,283.27
2022-11-04T01:49:27.000Z,283.27
2022-11-04T01:51:33.000Z,283.34
2022-11-04T01:52:59.000Z,283.27
2022-11-04T01:55:05.000Z,283.34
2022-11-04T01:56:32.000Z,283.4
2022-11-04T01:58:38.000Z,283.34
2022-11-04T02:01:29.000Z,283.4
2022-11-04T02:02:56.000Z,283.46
2022-11-04T02:05:02.000Z,283.46
2022-11-04T02:06:29.000Z,283.46
2022-11-04T02:08:35.000Z,283.46
2022-11-04T02:10:01.000Z,283.4
2022-11-04T02:12:07.000Z,283.46
2022-11-04T02:13:34.000Z,283.46
2022-11-04T02:15:40.000Z,283.4
2022-11-04T02:17:07.000Z,283.4
2022-11-04T02:19:13.000Z,283.4
2022-11-04T02:20:39.000Z,283.4
2022-11-04T02:22:45.000Z,283.46
2022-11-04T02:24:12.000Z,283.46
2022-11-04T02:26:18.000Z,283.52
2022-11-04T02:27:45.000Z,283.52
2022-11-04T02:29:51.000Z,283.52
2022-11-04T02:31:17.000Z,283.52
2022-11-04T02:33:23.000Z,283.46
2022-11-04T02:34:50.000Z,283.46
2022-11-04T02:36:56.000Z,283.46
2022-11-04T02:39:47.000Z,283.34
2022-11-04T02:41:13.000Z,283.21
2022-11-04T02:43:19.000Z,283.09
2022-11-04T02:44:46.000Z,283.02
2022-11-04T02:46:52.000Z,282.9
2022-11-04T02:48:18.000Z,282.84
2022-11-04T02:50:25.000Z,282.9
2022-11-04T02:51:51.000Z,282.84
2022-11-04T02:53:57.000Z,282.77
2022-11-04T02:55:24.000Z,282.77
2022-11-04T02:57:30.000Z,282.77
2022-11-04T02:58:56.000Z,282.71
2022-11-04T03:01:03.000Z,282.65
2022-11-04T03:02:29.000Z,282.71
2022-11-04T03:04:35.000Z,282.65
2022-11-04T03:06:02.000Z,282.65
2022-11-04T03:08:08.000Z,282.59
2022-11-04T03:09:35.000Z,282.59
2022-11-04T03:11:41.000Z,282.59
2022-11-04T03:13:08.000Z,282.52
2022-11-04T03:15:14.000Z,282.46
2022-11-04T03:18:05.000Z,282.4
2022-11-04T03:19:32.000Z,282.4
2022-11-04T03:21:38.000Z,282.4
2022-11-04T03:23:05.000Z,282.4
2022-11-04T03:25:11.000Z,282.34
2022-11-04T03:26:37.000Z,282.34
2022-11-04T03:28:43.000Z,282.27
2022-11-04T03:30:10.000Z,282.27
2022-11-04T03:32:16.000Z,282.27
2022-11-04T03:33:43.000Z,282.21
2022-11-04T03:35:49.000Z,282.21
2022-11-04T03:37:15.000Z,282.21
2022-11-04T03:39:21.000Z,282.21
2022-11-04T03:40:48.000Z,282.21
2022-11-04T03:42:54.000Z,282.15
2022-11-04T03:44:20.000Z,282.15
2022-11-04T03:46:26.000Z,282.15
2022-11-04T03:47:53.000Z,282.15
2022-11-04T03:49:59.000Z,282.15
2022-11-04T03:51:25.000Z,282.09
2022-11-04T03:53:32.000Z,282.02
2022-11-04T03:56:23.000Z,282.02
2022-11-04T03:57:49.000Z,282.02
2022-11-04T03:59:55.000Z,281.96
2022-11-04T04:01:22.000Z,281.96
2022-11-04T04:03:28.000Z,281.9
2022-11-04T04:04:55.000Z,281.9
2022-11-04T04:07:01.000Z,281.9
2022-11-04T04:08:27.000Z,281.84
2022-11-04T04:10:33.000Z,281.77
2022-11-04T04:12:00.000Z,281.71
2022-11-04T04:14:06.000Z,281.65
2022-11-04T04:15:32.000Z,281.71
2022-11-04T04:17:39.000Z,281.59
2022-11-04T04:19:05.000Z,281.52
2022-11-04T04:21:11.000Z,281.46
2022-11-04T04:22:38.000Z,281.46
2022-11-04T04:24:44.000Z,281.46
2022-11-04T04:26:10.000Z,281.4
2022-11-04T04:28:17.000Z,281.4
2022-11-04T04:29:43.000Z,281.4
2022-11-04T04:31:49.000Z,281.4
2022-11-04T04:34:41.000Z,281.34
2022-11-04T04:36:07.000Z,281.27
2022-11-04T04:38:13.000Z,281.27
2022-11-04T04:39:40.000Z,281.34
2022-11-04T04:41:46.000Z,281.34
2022-11-04T04:43:12.000Z,281.27
2022-11-04T04:45:18.000Z,281.21
2022-11-04T04:46:45.000Z,281.21
2022-11-04T04:48:51.000Z,281.15
2022-11-04T04:50:17.000Z,281.27
2022-11-04T04:52:24.000Z,281.21
2022-11-04T04:53:50.000Z,281.21
2022-11-04T04:55:56.000Z,281.27
2022-11-04T04:57:23.000Z,281.27
2022-11-04T04:59:29.000Z,281.21
2022-11-04T05:00:55.000Z,281.21
2022-11-04T05:03:01.000Z,281.15
2022-11-04T05:04:28.000Z,281.15
2022-11-04T05:06:34.000Z,281.09
2022-11-04T05:08:01.000Z,281.09
2022-11-04T05:10:07.000Z,281.09
2022-11-04T05:12:58.000Z,281.09
2022-11-04T05:14:24.000Z,281.02
2022-11-04T05:16:30.000Z,281.02
2022-11-04T05:18:03.000Z,280.96
2022-11-04T05:20:10.000Z,280.96
2022-11-04T05:21:37.000Z,280.9
2022-11-04T05:23:43.000Z,280.9
2022-11-04T05:25:09.000Z,280.9
2022-11-04T05:27:15.000Z,280.9
2022-11-04T05:28:42.000Z,280.96
2022-11-04T05:30:48.000Z,280.96
2022-11-04T05:32:15.000Z,281.02
2022-11-04T05:34:21.000Z,281.09
2022-11-04T05:35:47.000Z,281.15
2022-11-04T05:37:53.000Z,281.09
2022-11-04T05:39:20.000Z,281.09
2022-11-04T05:41:26.000Z,281.02
2022-11-04T05:42:52.000Z,281.02
2022-11-04T05:44:58.000Z,280.96
2022-11-04T05:46:25.000Z,280.96
2022-11-04T05:48:31.000Z,280.9
2022-11-04T05:51:29.000Z,280.9
2022-11-04T05:52:56.000Z,280.9
2022-11-04T05:55:02.000Z,280.77
2022-11-04T05:56:28.000Z,280.65
2022-11-04T05:58:34.000Z,280.59
2022-11-04T06:00:01.000Z,280.59
2022-11-04T06:02:07.000Z,280.65
2022-11-04T06:03:34.000Z,280.65
2022-11-04T06:05:40.000Z,280.65
2022-11-04T06:07:06.000Z,280.59
2022-11-04T06:09:12.000Z,280.52
2022-11-04T06:10:39.000Z,280.52
2022-11-04T06:12:45.000Z,280.46
2022-11-04T06:14:11.000Z,280.34
2022-11-04T06:16:23.000Z,280.21
2022-11-04T06:17:49.000Z,280.21
2022-11-04T06:19:55.000Z,280.21
2022-11-04T06:21:22.000Z,280.21
2022-11-04T06:23:28.000Z,280.15
2022-11-04T06:24:54.000Z,280.21
2022-11-04T06:27:00.000Z,280.21
2022-11-04T06:29:51.000Z,280.21
2022-11-04T06:31:18.000Z,280.27
2022-11-04T06:33:24.000Z,280.27
2022-11-04T06:34:50.000Z,280.27
2022-11-04T06:36:56.000Z,280.27
2022-11-04T06:38:23.000Z,280.27
2022-11-04T06:40:29.000Z,280.34
2022-11-04T06:41:56.000Z,280.34
2022-11-04T06:44:06.000Z,280.34
2022-11-04T06:45:32.000Z,280.27
2022-11-04T06:47:39.000Z,280.27
2022-11-04T06:49:05.000Z,280.27
2022-11-04T06:51:11.000Z,280.27
2022-11-04T06:52:38.000Z,280.27
2022-11-04T06:54:46.000Z,280.15
2022-11-04T06:56:13.000Z,280.09
2022-11-04T06:58:19.000Z,280.02
2022-11-04T06:59:45.000Z,280.02
2022-11-04T07:01:52.000Z,280.02
2022-11-04T07:03:18.000Z,280.02
2022-11-04T07:05:25.000Z,280.02
2022-11-04T07:08:15.000Z,279.96
2022-11-04T07:09:42.000Z,279.96
2022-11-04T07:11:48.000Z,279.96
2022-11-04T07:13:14.000Z,280.02
2022-11-04T07:15:21.000Z,279.96
2022-11-04T07:16:52.000Z,279.96
2022-11-04T07:18:58.000Z,279.96
2022-11-04T07:20:24.000Z,280.02
2022-11-04T07:22:30.000Z,280.02
2022-11-04T07:23:57.000Z,280.02
2022-11-04T07:26:03.000Z,280.02
2022-11-04T07:27:29.000Z,279.96
2022-11-04T07:29:36.000Z,280.02
2022-11-04T07:31:02.000Z,279.96
2022-11-04T07:33:08.000Z,280.02
2022-11-04T07:34:35.000Z,280.02
2022-11-04T07:36:41.000Z,280.02
2022-11-04T07:38:07.000Z,280.09
2022-11-04T07:40:14.000Z,280.09
2022-11-04T07:41:41.000Z,280.09
2022-11-04T07:43:47.000Z,280.15
2022-11-04T07:46:38.000Z,280.15
2022-11-04T07:48:04.000Z,280.15
2022-11-04T07:50:11.000Z,280.21
2022-11-04T07:51:38.000Z,280.27
2022-11-04T07:53:44.000Z,280.27
2022-11-04T07:55:10.000Z,280.34
2022-11-04T07:57:17.000Z,280.34
2022-11-04T07:58:43.000Z,280.46
2022-11-04T08:00:49.000Z,280.52
2022-11-04T08:02:16.000Z,280.52
2022-11-04T08:04:30.000Z,280.59
2022-11-04T08:05:56.000Z,280.59
2022-11-04T08:08:02.000Z,280.59
2022-11-04T08:09:29.000Z,280.65
2022-11-04T08:11:35.000Z,280.65
2022-11-04T08:13:01.000Z,280.65
2022-11-04T08:15:07.000Z,280.65
2022-11-04T08:16:34.000Z,280.65
2022-11-04T08:18:40.000Z,280.71
2022-11-04T08:20:07.000Z,280.71
2022-11-04T08:22:13.000Z,280.71
2022-11-04T08:25:04.000Z,280.77
2022-11-04T08:26:31.000Z,280.77
2022-11-04T08:28:37.000Z,280.84
2022-11-04T08:30:04.000Z,280.9
2022-11-04T08:32:10.000Z,280.9
2022-11-04T08:33:36.000Z,280.9
2022-11-04T08:35:42.000Z,280.96
2022-11-04T08:37:09.000Z,281.02
2022-11-04T08:39:15.000Z,281.02
2022-11-04T08:40:41.000Z,281.02
2022-11-04T08:42:47.000Z,281.09
2022-11-04T08:44:14.000Z,281.09
2022-11-04T08:46:20.000Z,281.15
2022-11-04T08:47:47.000Z,281.21
2022-11-04T08:49:53.000Z,281.27
2022-11-04T08:51:19.000Z,281.27
2022-11-04T08:53:25.000Z,281.34
2022-11-04T08:54:52.000Z,281.34
2022-11-04T08:57:01.000Z,281.4
2022-11-04T08:58:28.000Z,281.4
2022-11-04T09:00:34.000Z,281.46
2022-11-04T09:03:25.000Z,281.52
2022-11-04T09:04:51.000Z,281.52
2022-11-04T09:06:58.000Z,281.59
2022-11-04T09:08:32.000Z,281.65
2022-11-04T09:12:11.000Z,281.65
2022-11-04T09:14:17.000Z,281.77
2022-11-04T09:16:01.000Z,281.77
2022-11-04T09:17:28.000Z,281.84
2022-11-04T09:19:34.000Z,281.9
2022-11-04T09:21:00.000Z,281.96
2022-11-04T09:23:06.000Z,281.96
2022-11-04T09:24:33.000Z,282.02
2022-11-04T09:26:40.000Z,282.02
2022-11-04T09:28:06.000Z,282.09
2022-11-04T09:30:12.000Z,282.15
2022-11-04T09:31:39.000Z,282.15
2022-11-04T09:33:45.000Z,282.21
2022-11-04T09:35:11.000Z,282.21
2022-11-04T09:37:17.000Z,282.21
2022-11-04T09:38:44.000Z,282.27
2022-11-04T09:40:50.000Z,282.34
2022-11-04T09:42:17.000Z,282.4
2022-11-04T09:44:23.000Z,282.4
2022-11-04T09:45:49.000Z,282.4
2022-11-04T09:47:56.000Z,282.46
2022-11-04T09:49:22.000Z,282.46
2022-11-04T09:51:28.000Z,282.52
2022-11-04T09:54:43.000Z,282.59
2022-11-04T09:56:12.000Z,282.71
2022-11-04T09:58:18.000Z,282.71
2022-11-04T09:59:44.000Z,282.77
2022-11-04T10:01:51.000Z,282.71
2022-11-04T10:03:17.000Z,282.77
2022-11-04T10:05:23.000Z,282.84
2022-11-04T10:06:50.000Z,282.9
2022-11-04T10:08:56.000Z,282.96
2022-11-04T10:10:22.000Z,282.96
2022-11-04T10:12:29.000Z,283.02
2022-11-04T10:13:55.000Z,283.02
2022-11-04T10:16:01.000Z,283.02
2022-11-04T10:17:28.000Z,283.02
2022-11-04T10:19:34.000Z,283.09
2022-11-04T10:21:00.000Z,283.09
2022-11-04T10:23:06.000Z,283.15
2022-11-04T10:24:33.000Z,283.21
2022-11-04T10:26:39.000Z,283.27
2022-11-04T10:28:06.000Z,283.34
2022-11-04T10:30:12.000Z,283.34
2022-11-04T10:33:03.000Z,283.4
2022-11-04T10:34:30.000Z,283.34
2022-11-04T10:36:36.000Z,283.4
2022-11-04T10:38:03.000Z,283.4
2022-11-04T10:40:09.000Z,283.34
2022-11-04T10:41:35.000Z,283.4
2022-11-04T10:43:41.000Z,283.4
2022-11-04T10:45:08.000Z,283.46
2022-11-04T10:47:14.000Z,283.52
2022-11-04T10:48:40.000Z,283.52
2022-11-04T10:50:46.000Z,283.59
2022-11-04T10:52:13.000Z,283.65
2022-11-04T10:54:26.000Z,283.71
2022-11-04T10:55:52.000Z,283.77
2022-11-04T10:57:58.000Z,283.84
2022-11-04T10:59:25.000Z,283.84
2022-11-04T11:01:31.000Z,284.02
2022-11-04T11:02:58.000Z,283.96
2022-11-04T11:05:04.000Z,284.02
2022-11-04T11:06:30.000Z,284.09
2022-11-04T11:08:37.000Z,284.09
2022-11-04T11:11:28.000Z,284.21
2022-11-04T11:12:54.000Z,284.27
2022-11-04T11:15:00.000Z,284.27
2022-11-04T11:16:27.000Z,284.27
2022-11-04T11:18:33.000Z,284.34
2022-11-04T11:19:59.000Z,284.34
2022-11-04T11:22:06.000Z,284.27
2022-11-04T11:23:32.000Z,284.34
2022-11-04T11:25:38.000Z,284.4
2022-11-04T11:27:05.000Z,284.4
2022-11-04T11:29:11.000Z,284.27
2022-11-04T11:30:37.000Z,284.34
2022-11-04T11:32:43.000Z,284.27
2022-11-04T11:34:10.000Z,284.27
2022-11-04T11:36:16.000Z,284.15
2022-11-04T11:37:43.000Z,284.15
2022-11-04T11:39:49.000Z,284.09
2022-11-04T11:41:15.000Z,284.02
2022-11-04T11:43:29.000Z,284.02
2022-11-04T11:44:56.000Z,284.02
2022-11-04T11:47:02.000Z,284.09
2022-11-04T11:49:53.000Z,284.21
2022-11-04T11:51:20.000Z,284.27
2022-11-04T11:53:28.000Z,284.4
2022-11-04T11:54:54.000Z,284.4
2022-11-04T11:57:01.000Z,284.4
2022-11-04T12:01:16.000Z,284.59
2022-11-04T12:02:49.000Z,284.65
2022-11-04T12:09:28.000Z,284.59
2022-11-04T12:10:59.000Z,284.52
2022-11-04T12:13:05.000Z,284.59
2022-11-04T12:14:42.000Z,284.59
2022-11-04T12:16:53.000Z,284.65
2022-11-04T12:18:19.000Z,284.71
2022-11-04T12:20:25.000Z,284.65
2022-11-04T12:21:52.000Z,284.59
2022-11-04T12:23:58.000Z,284.71
2022-11-04T12:25:25.000Z,284.71
2022-11-04T12:27:31.000Z,284.65
2022-11-04T12:30:22.000Z,284.71
2022-11-04T12:31:56.000Z,284.65
2022-11-04T12:34:03.000Z,284.59
2022-11-04T12:35:29.000Z,284.46
2022-11-04T12:37:35.000Z,284.4
2022-11-04T12:39:02.000Z,284.4
2022-11-04T12:41:08.000Z,284.21
2022-11-04T12:43:11.000Z,284.21
2022-11-04T12:45:17.000Z,284.21
2022-11-04T12:46:44.000Z,284.21
2022-11-04T12:48:50.000Z,284.21
2022-11-04T12:50:22.000Z,284.21
2022-11-04T12:52:28.000Z,284.21
2022-11-04T12:53:54.000Z,284.21
2022-11-04T12:56:01.000Z,284.27
2022-11-04T12:57:27.000Z,284.27
2022-11-04T12:59:33.000Z,284.27
2022-11-04T13:01:00.000Z,284.27
2022-11-04T13:03:06.000Z,284.21
2022-11-04T13:04:33.000Z,284.27
2022-11-04T13:06:39.000Z,284.21
2022-11-04T13:09:30.000Z,284.21
2022-11-04T13:10:57.000Z,284.21
2022-11-04T13:13:03.000Z,284.15
2022-11-04T13:14:29.000Z,284.15
2022-11-04T13:16:35.000Z,284.15
2022-11-04T13:18:02.000Z,284.15
2022-11-04T13:20:08.000Z,284.21
2022-11-04T13:21:34.000Z,284.21
2022-11-04T13:23:41.000Z,284.21
2022-11-04T13:25:07.000Z,284.21
2022-11-04T13:27:13.000Z,284.21
2022-11-04T13:28:40.000Z,284.21
2022-11-04T13:30:46.000Z,284.21
2022-11-04T13:32:12.000Z,284.27
2022-11-04T13:34:18.000Z,284.27
2022-11-04T13:35:48.000Z,284.27
2022-11-04T13:37:54.000Z,284.27
2022-11-04T13:39:20.000Z,284.27
2022-11-04T13:41:26.000Z,284.27
2022-11-04T13:42:53.000Z,284.27
2022-11-04T13:44:59.000Z,284.27
2022-11-04T13:47:50.000Z,284.27
2022-11-04T13:49:17.000Z,284.27
2022-11-04T13:51:23.000Z,284.21
2022-11-04T13:52:49.000Z,284.21
2022-11-04T13:54:57.000Z,284.21
2022-11-04T13:56:23.000Z,284.21
2022-11-04T13:58:38.000Z,284.21
2022-11-04T14:00:11.000Z,284.21
2022-11-04T14:02:17.000Z,284.21
2022-11-04T14:03:44.000Z,284.15
2022-11-04T14:05:50.000Z,284.15
2022-11-04T14:07:17.000Z,284.15
2022-11-04T14:09:23.000Z,284.15
2022-11-04T14:10:49.000Z,284.09
2022-11-04T14:12:56.000Z,284.09
2022-11-04T14:14:22.000Z,284.15
2022-11-04T14:16:28.000Z,284.09
2022-11-04T14:17:55.000Z,284.15
2022-11-04T14:20:01.000Z,284.09
2022-11-04T14:21:27.000Z,284.02
2022-11-04T14:23:33.000Z,284.02
2022-11-04T14:26:25.000Z,284.02
2022-11-04T14:27:51.000Z,284.02
2022-11-04T14:29:57.000Z,283.96
2022-11-04T14:31:24.000Z,283.96
2022-11-04T14:33:30.000Z,283.96
2022-11-04T14:34:57.000Z,283.9
2022-11-04T14:37:03.000Z,283.9
2022-11-04T14:38:29.000Z,283.9
2022-11-04T14:40:35.000Z,283.9
2022-11-04T14:42:02.000Z,283.84
2022-11-04T14:44:08.000Z,283.77
2022-11-04T14:45:35.000Z,283.77
2022-11-04T14:47:41.000Z,283.77
2022-11-04T14:49:07.000Z,283.77
2022-11-04T14:51:13.000Z,283.71
2022-11-04T14:52:40.000Z,283.71
2022-11-04T14:54:46.000Z,283.71
2022-11-04T14:56:13.000Z,283.71
2022-11-04T14:58:27.000Z,283.71
2022-11-04T14:59:53.000Z,283.71
2022-11-04T15:01:59.000Z,283.71
2022-11-04T15:04:51.000Z,283.65
2022-11-04T15:06:18.000Z,283.71
2022-11-04T15:08:26.000Z,283.65
2022-11-04T15:09:52.000Z,283.65
2022-11-04T15:11:58.000Z,283.59
2022-11-04T15:13:25.000Z,283.59
2022-11-04T15:15:31.000Z,283.59
2022-11-04T15:16:57.000Z,283.59
2022-11-04T15:19:03.000Z,283.52
2022-11-04T15:20:30.000Z,283.52
2022-11-04T15:22:36.000Z,283.46
2022-11-04T15:24:03.000Z,283.46
2022-11-04T15:26:09.000Z,283.4
2022-11-04T15:27:35.000Z,283.34
2022-11-04T15:29:41.000Z,283.34
2022-11-04T15:31:08.000Z,283.34
2022-11-04T15:33:14.000Z,283.21
2022-11-04T15:34:40.000Z,283.21
2022-11-04T15:36:46.000Z,283.15
2022-11-04T15:38:13.000Z,283.15
2022-11-04T15:40:19.000Z,283.15
2022-11-04T15:43:10.000Z,283.15
2022-11-04T15:44:37.000Z,283.21
2022-11-04T15:46:43.000Z,283.15
2022-11-04T15:48:10.000Z,283.15
2022-11-04T15:50:16.000Z,283.09
2022-11-04T15:51:42.000Z,283.09
2022-11-04T15:53:48.000Z,283.09
2022-11-04T15:55:15.000Z,283.02
2022-11-04T15:57:21.000Z,282.96
2022-11-04T15:58:47.000Z,282.96
2022-11-04T16:00:53.000Z,282.96
2022-11-04T16:02:20.000Z,282.96
2022-11-04T16:04:26.000Z,282.9
2022-11-04T16:05:53.000Z,282.9
2022-11-04T16:07:59.000Z,282.84
2022-11-04T16:09:26.000Z,282.84
2022-11-04T16:11:32.000Z,282.84
2022-11-04T16:12:58.000Z,282.84
2022-11-04T16:15:05.000Z,282.84
2022-11-04T16:16:31.000Z,282.9
2022-11-04T16:18:37.000Z,282.84
2022-11-04T16:21:28.000Z,282.71
2022-11-04T16:22:55.000Z,282.71
2022-11-04T16:25:01.000Z,282.65
2022-11-04T16:26:27.000Z,282.65
2022-11-04T16:28:33.000Z,282.59
2022-11-04T16:30:00.000Z,282.52
2022-11-04T16:32:06.000Z,282.52
2022-11-04T16:33:33.000Z,282.52
2022-11-04T16:35:39.000Z,282.52
2022-11-04T16:37:05.000Z,282.46
2022-11-04T16:39:11.000Z,282.34
2022-11-04T16:40:38.000Z,282.27
2022-11-04T16:42:44.000Z,282.15
2022-11-04T16:44:10.000Z,282.09
2022-11-04T16:46:16.000Z,282.02
2022-11-04T16:47:43.000Z,281.96
2022-11-04T16:49:49.000Z,281.9
2022-11-04T16:51:16.000Z,281.9
2022-11-04T16:53:22.000Z,281.9
2022-11-04T16:54:48.000Z,281.9
2022-11-04T16:56:54.000Z,281.84
2022-11-04T16:59:46.000Z,281.84
2022-11-04T17:01:12.000Z,281.77
2022-11-04T17:03:19.000Z,281.65
2022-11-04T17:04:45.000Z,281.59
2022-11-04T17:06:51.000Z,281.52
2022-11-04T17:08:18.000Z,281.59
2022-11-04T17:10:24.000Z,281.59
2022-11-04T17:11:50.000Z,281.59
2022-11-04T17:13:57.000Z,281.59
2022-11-04T17:15:23.000Z,281.46
2022-11-04T17:17:29.000Z,281.27
2022-11-04T17:18:56.000Z,281.21
2022-11-04T17:21:02.000Z,281.15
2022-11-04T17:22:28.000Z,281.02
2022-11-04T17:24:34.000Z,281.02
2022-11-04T17:26:01.000Z,280.96
2022-11-04T17:28:07.000Z,280.9
2022-11-04T17:29:33.000Z,280.9
2022-11-04T17:31:39.000Z,280.84
2022-11-04T17:33:06.000Z,280.84
2022-11-04T17:35:13.000Z,280.9
2022-11-04T17:38:04.000Z,280.84
2022-11-04T17:39:30.000Z,280.77
2022-11-04T17:41:37.000Z,280.65
2022-11-04T17:43:03.000Z,280.71
2022-11-04T17:45:16.000Z,280.65
2022-11-04T17:46:42.000Z,280.59
2022-11-04T17:48:48.000Z,280.52
2022-11-04T17:50:15.000Z,280.4
2022-11-04T17:52:21.000Z,280.34
2022-11-04T17:53:47.000Z,280.4
2022-11-04T17:55:54.000Z,280.4
2022-11-04T17:57:20.000Z,280.4
2022-11-04T17:59:26.000Z,280.4
2022-11-04T18:01:00.000Z,280.4
2022-11-04T18:03:10.000Z,280.34
2022-11-04T18:04:37.000Z,280.34
2022-11-04T18:06:43.000Z,280.34
2022-11-04T18:08:09.000Z,280.34
2022-11-04T18:10:16.000Z,280.34
2022-11-04T18:11:42.000Z,280.34
2022-11-04T18:13:48.000Z,280.34
2022-11-04T18:16:39.000Z,280.34
2022-11-04T18:18:06.000Z,280.34
2022-11-04T18:20:12.000Z,280.34
2022-11-04T18:21:39.000Z,280.27
2022-11-04T18:23:45.000Z,280.27
2022-11-04T18:25:11.000Z,280.34
2022-11-04T18:27:17.000Z,280.4
2022-11-04T18:28:44.000Z,280.46
2022-11-04T18:30:50.000Z,280.59
2022-11-04T18:32:16.000Z,280.59
2022-11-04T18:34:23.000Z,280.52
2022-11-04T18:35:49.000Z,280.52
2022-11-04T18:37:55.000Z,280.52
2022-11-04T18:39:22.000Z,280.52
2022-11-04T18:41:28.000Z,280.46
2022-11-04T18:42:54.000Z,280.4
2022-11-04T18:45:00.000Z,280.4
2022-11-04T18:46:27.000Z,280.46
2022-11-04T18:48:33.000Z,280.46
2022-11-04T18:49:59.000Z,280.46
2022-11-04T18:52:06.000Z,280.52
2022-11-04T18:54:57.000Z,280.52
2022-11-04T18:56:23.000Z,280.52
2022-11-04T18:58:29.000Z,280.46
2022-11-04T18:59:56.000Z,280.46
2022-11-04T19:02:02.000Z,280.46
2022-11-04T19:03:29.000Z,280.46
2022-11-04T19:05:35.000Z,280.46
2022-11-04T19:07:01.000Z,280.46
2022-11-04T19:09:07.000Z,280.46
2022-11-04T19:11:04.000Z,280.52
2022-11-04T19:13:11.000Z,280.52
2022-11-04T19:14:37.000Z,280.52
2022-11-04T19:16:43.000Z,280.52
2022-11-04T19:18:10.000Z,280.52
2022-11-04T19:20:16.000Z,280.52
2022-11-04T19:21:43.000Z,280.52
2022-11-04T19:23:49.000Z,280.59
2022-11-04T19:25:16.000Z,280.59
2022-11-04T19:27:22.000Z,280.52
2022-11-04T19:28:48.000Z,280.46
2022-11-04T19:30:55.000Z,280.4
2022-11-04T19:33:46.000Z,280.46
2022-11-04T19:35:13.000Z,280.46
2022-11-04T19:37:19.000Z,280.46
2022-11-04T19:38:45.000Z,280.46
2022-11-04T19:40:51.000Z,280.52
2022-11-04T19:42:18.000Z,280.52
2022-11-04T19:44:24.000Z,280.52
2022-11-04T19:45:51.000Z,280.52
2022-11-04T19:47:57.000Z,280.59
2022-11-04T19:49:23.000Z,280.59
2022-11-04T19:51:29.000Z,280.59
2022-11-04T19:52:56.000Z,280.59
2022-11-04T19:55:02.000Z,280.65
2022-11-04T19:56:29.000Z,280.65
2022-11-04T19:58:35.000Z,280.59
2022-11-04T20:00:02.000Z,280.65
2022-11-04T20:02:08.000Z,280.65
2022-11-04T20:03:35.000Z,280.65
2022-11-04T20:05:41.000Z,280.65
2022-11-04T20:07:07.000Z,280.65
2022-11-04T20:09:13.000Z,280.65
2022-11-04T20:12:05.000Z,280.59
2022-11-04T20:13:31.000Z,280.59
2022-11-04T20:15:37.000Z,280.59
2022-11-04T20:17:04.000Z,280.52
2022-11-04T20:19:10.000Z,280.52
2022-11-04T20:20:36.000Z,280.52
2022-11-04T20:22:42.000Z,280.52
2022-11-04T20:24:09.000Z,280.59
2022-11-04T20:26:15.000Z,280.52
2022-11-04T20:27:45.000Z,280.59
2022-11-04T20:29:51.000Z,280.59
2022-11-04T20:31:17.000Z,280.59
2022-11-04T20:33:23.000Z,280.59
2022-11-04T20:34:50.000Z,280.52
2022-11-04T20:36:56.000Z,280.52
2022-11-04T20:38:23.000Z,280.46
2022-11-04T20:40:29.000Z,280.4
2022-11-04T20:41:55.000Z,280.4
2022-11-04T20:44:02.000Z,280.4
2022-11-04T20:45:28.000Z,280.4
2022-11-04T20:47:34.000Z,280.4
2022-11-04T20:50:25.000Z,280.46
2022-11-04T20:51:52.000Z,280.4
2022-11-04T20:53:59.000Z,280.4
2022-11-04T20:55:26.000Z,280.46
2022-11-04T20:57:32.000Z,280.4
2022-11-04T20:58:58.000Z,280.4
2022-11-04T21:01:04.000Z,280.4
2022-11-04T21:02:31.000Z,280.4
2022-11-04T21:04:37.000Z,280.4
2022-11-04T21:06:04.000Z,280.34
2022-11-04T21:08:10.000Z,280.34
2022-11-04T21:09:37.000Z,280.27
2022-11-04T21:11:43.000Z,280.21
2022-11-04T21:13:09.000Z,280.27
2022-11-04T21:15:15.000Z,280.27
2022-11-04T21:16:42.000Z,280.27
2022-11-04T21:18:48.000Z,280.21
2022-11-04T21:20:15.000Z,280.21
2022-11-04T21:22:21.000Z,280.15
2022-11-04T21:23:47.000Z,280.15
2022-11-04T21:25:54.000Z,280.09
2022-11-04T21:28:45.000Z,280.09
2022-11-04T21:30:11.000Z,280.15
2022-11-04T21:32:17.000Z,280.15
2022-11-04T21:33:44.000Z,280.15
2022-11-04T21:35:50.000Z,280.15
2022-11-04T21:37:17.000Z,280.15
2022-11-04T21:39:23.000Z,280.15
2022-11-04T21:40:49.000Z,280.15
2022-11-04T21:42:55.000Z,280.15
2022-11-04T21:44:22.000Z,280.15
2022-11-04T21:46:28.000Z,280.21
2022-11-04T21:47:54.000Z,280.21
2022-11-04T21:50:01.000Z,280.21
2022-11-04T21:51:27.000Z,280.21
2022-11-04T21:53:33.000Z,280.15
2022-11-04T21:55:00.000Z,280.15
2022-11-04T21:57:06.000Z,280.15
2022-11-04T21:58:32.000Z,280.15
2022-11-04T22:00:39.000Z,280.09
2022-11-04T22:02:05.000Z,280.09
2022-11-04T22:04:12.000Z,280.09
2022-11-04T22:07:03.000Z,280.09
2022-11-04T22:08:29.000Z,280.09
2022-11-04T22:10:35.000Z,280.09
2022-11-04T22:12:02.000Z,280.15
2022-11-04T22:14:08.000Z,280.09
2022-11-04T22:15:34.000Z,280.09
2022-11-04T22:17:41.000Z,280.02
2022-11-04T22:19:07.000Z,280.09
2022-11-04T22:21:13.000Z,280.09
2022-11-04T22:22:40.000Z,280.09
2022-11-04T22:24:46.000Z,280.09
2022-11-04T22:26:12.000Z,280.15
2022-11-04T22:28:18.000Z,280.09
2022-11-04T22:29:45.000Z,280.09
2022-11-04T22:31:51.000Z,280.09
2022-11-04T22:33:17.000Z,280.09
2022-11-04T22:35:24.000Z,280.09
2022-11-04T22:36:50.000Z,280.02
2022-11-04T22:38:56.000Z,280.09
2022-11-04T22:40:23.000Z,280.09
2022-11-04T22:42:29.000Z,280.09
2022-11-04T22:45:20.000Z,280.09
2022-11-04T22:46:47.000Z,280.15
2022-11-04T22:48:53.000Z,280.15
2022-11-04T22:50:19.000Z,280.15
2022-11-04T22:52:25.000Z,280.15
2022-11-04T22:53:52.000Z,280.15
2022-11-04T22:56:03.000Z,280.15
2022-11-04T22:57:29.000Z,280.15
2022-11-04T22:59:35.000Z,280.15
2022-11-04T23:01:02.000Z,280.15
2022-11-04T23:03:08.000Z,280.15